createdAt,value
2019-04-23T00:06:00.527Z,3.03
2019-04-23T00:08:50.139Z,2.90
2019-04-23T00:14:23.914Z,2.40
2019-04-23T00:19:49.443Z,3.40
2019-04-23T00:22:49.656Z,3.07
2019-04-23T00:28:45.566Z,2.80
2019-04-23T00:31:29.560Z,2.90
2019-04-23T00:34:09.295Z,3.13
2019-04-23T00:37:01.836Z,3.00
2019-04-23T00:39:46.858Z,2.80
2019-04-23T00:42:42.771Z,3.23
2019-04-23T00:45:39.865Z,3.23
2019-04-23T00:48:31.113Z,3.57
2019-04-23T00:51:02.285Z,3.20
2019-04-23T00:53:51.427Z,3.40
2019-04-23T00:59:26.850Z,3.30
2019-04-23T01:02:31.135Z,3.50
2019-04-23T01:05:05.170Z,3.43
2019-04-23T01:07:47.563Z,3.60
2019-04-23T01:14:11.524Z,3.60
2019-04-23T01:16:48.406Z,3.40
2019-04-23T01:22:38.020Z,3.83
2019-04-23T01:28:49.674Z,3.13
2019-04-23T01:31:34.861Z,3.40
2019-04-23T01:34:26.046Z,3.10
2019-04-23T01:37:15.519Z,3.77
2019-04-23T01:39:52.803Z,3.30
2019-04-23T01:42:40.683Z,3.80
2019-04-23T01:45:24.265Z,3.37
2019-04-23T01:48:05.202Z,3.57
2019-04-23T01:53:51.557Z,3.43
2019-04-23T01:57:16.609Z,3.50
2019-04-23T02:00:18.244Z,4.10
2019-04-23T02:05:55.538Z,3.70
2019-04-23T02:08:45.737Z,3.83
2019-04-23T02:11:35.652Z,3.87
2019-04-23T02:14:20.820Z,4.20
2019-04-23T02:17:10.200Z,4.13
2019-04-23T02:20:02.323Z,3.97
2019-04-23T02:25:53.807Z,4.10
2019-04-23T02:28:54.585Z,3.83
2019-04-23T02:34:52.648Z,3.37
2019-04-23T02:37:34.711Z,3.77
2019-04-23T02:40:23.366Z,3.57
2019-04-23T02:43:09.248Z,3.63
2019-04-23T02:46:04.365Z,3.77
2019-04-23T02:51:17.941Z,4.23
2019-04-23T03:02:58.744Z,3.87
2019-04-23T03:05:24.951Z,4.50
2019-04-23T03:11:08.144Z,4.10
2019-04-23T03:14:03.629Z,4.23
2019-04-23T03:19:58.554Z,4.17
2019-04-23T03:26:11.043Z,4.20
2019-04-23T03:40:18.730Z,4.73
2019-04-23T03:43:14.643Z,3.97
2019-04-23T03:46:00.910Z,4.20
2019-04-23T03:49:07.678Z,4.43
2019-04-23T03:51:17.221Z,4.13
2019-04-23T03:54:21.762Z,4.50
2019-04-23T03:57:06.006Z,4.60
2019-04-23T04:05:20.559Z,4.43
2019-04-23T04:08:12.088Z,4.37
2019-04-23T04:19:06.521Z,4.33
2019-04-23T04:22:16.346Z,4.40
2019-04-23T04:27:41.477Z,4.50
2019-04-23T04:30:22.190Z,4.13
2019-04-23T04:36:32.628Z,5.10
2019-04-23T04:39:26.878Z,5.47
2019-04-23T04:42:10.310Z,4.80
2019-04-23T04:45:23.239Z,4.43
2019-04-23T04:48:19.689Z,4.63
2019-04-23T04:51:00.462Z,4.60
2019-04-23T04:54:00.901Z,4.57
2019-04-23T04:59:35.152Z,4.40
2019-04-23T05:02:39.622Z,5.07
2019-04-23T05:05:31.333Z,5.00
2019-04-23T05:08:05.062Z,4.90
2019-04-23T05:16:09.638Z,5.57
2019-04-23T05:22:36.330Z,4.70
2019-04-23T05:25:17.506Z,4.83
2019-04-23T05:28:28.505Z,4.67
2019-04-23T05:31:02.364Z,5.00
2019-04-23T05:33:57.259Z,5.50
2019-04-23T05:36:41.498Z,4.87
2019-04-23T05:39:30.943Z,5.63
2019-04-23T05:45:13.954Z,4.83
2019-04-23T05:50:50.747Z,4.53
2019-04-23T05:53:33.038Z,4.90
2019-04-23T05:56:20.564Z,4.70
2019-04-23T06:02:13.260Z,4.50
2019-04-23T06:05:04.289Z,4.80
2019-04-23T06:07:49.351Z,5.00
2019-04-23T06:10:19.808Z,5.53
2019-04-23T06:13:22.509Z,4.97
2019-04-23T06:16:13.747Z,5.67
2019-04-23T06:19:02.863Z,4.90
2019-04-23T06:21:57.546Z,6.73
2019-04-23T06:27:22.069Z,5.30
2019-04-23T06:30:01.702Z,5.70
2019-04-23T06:32:52.277Z,5.83
2019-04-23T06:35:41.288Z,6.90
2019-04-23T06:38:41.038Z,6.20
2019-04-23T06:44:15.975Z,6.77
2019-04-23T06:47:30.891Z,7.00
2019-04-23T06:50:36.575Z,6.67
2019-04-23T06:52:55.815Z,6.57
2019-04-23T06:55:50.710Z,6.67
2019-04-23T07:01:17.633Z,6.50
2019-04-23T07:04:18.090Z,5.57
2019-04-23T07:07:36.564Z,6.03
2019-04-23T07:10:11.535Z,6.27
2019-04-23T07:15:42.368Z,6.40
2019-04-23T07:18:24.327Z,6.43
2019-04-23T07:21:17.802Z,5.93
2019-04-23T07:26:45.042Z,6.80
2019-04-23T07:29:38.989Z,5.47
2019-04-23T07:32:35.868Z,5.77
2019-04-23T07:35:25.718Z,5.80
2019-04-23T07:45:02.330Z,6.00
2019-04-23T07:48:10.618Z,5.90
2019-04-23T07:53:39.909Z,5.60
2019-04-23T07:56:42.240Z,5.87
2019-04-23T07:59:22.756Z,6.07
2019-04-23T08:02:06.112Z,5.50
2019-04-23T08:04:54.379Z,5.63
2019-04-23T08:07:37.793Z,5.80
2019-04-23T08:10:28.734Z,6.13
2019-04-23T08:13:37.940Z,6.10
2019-04-23T08:16:19.667Z,5.97
2019-04-23T08:19:07.768Z,5.73
2019-04-23T08:21:58.278Z,5.80
2019-04-23T08:25:12.977Z,5.60
2019-04-23T08:28:35.471Z,5.27
2019-04-23T08:31:07.850Z,5.23
2019-04-23T08:33:57.344Z,5.40
2019-04-23T08:36:44.463Z,5.90
2019-04-23T08:39:26.915Z,5.77
2019-04-23T08:48:41.315Z,6.40
2019-04-23T08:54:27.941Z,5.50
2019-04-23T08:57:04.015Z,5.60
2019-04-23T09:02:54.091Z,5.63
2019-04-23T09:05:38.702Z,5.83
2019-04-23T09:16:35.965Z,5.17
2019-04-23T09:19:32.103Z,5.37
2019-04-23T09:22:14.202Z,5.60
2019-04-23T09:25:03.938Z,5.20
2019-04-23T09:27:39.967Z,5.57
2019-04-23T09:30:38.770Z,5.80
2019-04-23T09:37:35.320Z,5.67
2019-04-23T09:40:41.503Z,5.67
2019-04-23T09:47:58.501Z,5.10
2019-04-23T09:56:10.348Z,5.53
2019-04-23T09:59:03.011Z,5.60
2019-04-23T10:01:51.228Z,5.10
2019-04-23T10:04:16.978Z,4.87
2019-04-23T10:07:12.686Z,4.83
2019-04-23T10:09:53.619Z,5.23
2019-04-23T10:12:48.210Z,5.77
2019-04-23T10:15:44.724Z,5.40
2019-04-23T10:18:29.126Z,5.37
2019-04-23T10:21:15.321Z,5.83
2019-04-23T10:24:09.611Z,5.67
2019-04-23T10:27:04.134Z,6.17
2019-04-23T10:29:50.003Z,5.20
2019-04-23T10:32:45.649Z,5.33
2019-04-23T10:35:41.107Z,5.60
2019-04-23T10:38:20.239Z,5.40
2019-04-23T10:41:04.408Z,5.30
2019-04-23T10:43:56.168Z,5.40
2019-04-23T10:47:45.214Z,5.20
2019-04-23T10:54:36.115Z,4.80
2019-04-23T10:57:28.215Z,4.87
2019-04-23T11:00:08.811Z,5.63
2019-04-23T11:02:58.883Z,5.93
2019-04-23T11:05:53.799Z,5.43
2019-04-23T11:08:31.095Z,5.07
2019-04-23T11:11:23.957Z,5.30
2019-04-23T11:14:13.289Z,5.30
2019-04-23T11:16:57.225Z,5.30
2019-04-23T11:19:52.855Z,5.47
2019-04-23T11:34:11.025Z,5.10
2019-04-23T11:39:38.728Z,5.10
2019-04-23T11:42:32.315Z,4.87
2019-04-23T11:45:28.199Z,5.00
2019-04-23T11:48:52.206Z,5.30
2019-04-23T11:51:26.215Z,5.33
2019-04-23T11:53:54.627Z,5.13
2019-04-23T11:59:29.632Z,5.07
2019-04-23T12:02:32.797Z,4.47
2019-04-23T12:05:48.198Z,4.97
2019-04-23T12:09:26.383Z,4.90
2019-04-23T12:12:08.529Z,4.73
2019-04-23T12:15:05.775Z,4.30
2019-04-23T12:18:16.993Z,5.00
2019-04-23T12:33:03.223Z,4.40
2019-04-23T12:35:51.940Z,4.13
2019-04-23T12:39:05.396Z,4.90
2019-04-23T12:42:12.740Z,4.83
2019-04-23T12:53:23.858Z,4.90
2019-04-23T12:56:21.227Z,4.80
2019-04-23T12:58:40.098Z,4.50
2019-04-23T13:01:49.005Z,4.77
2019-04-23T13:04:45.493Z,4.20
2019-04-23T13:07:36.711Z,4.70
2019-04-23T13:10:11.972Z,4.77
2019-04-23T13:13:04.222Z,4.23
2019-04-23T13:15:39.924Z,4.30
2019-04-23T13:18:41.440Z,4.40
2019-04-23T13:21:46.694Z,5.50
2019-04-23T13:24:32.855Z,4.60
2019-04-23T13:27:29.047Z,4.77
2019-04-23T13:30:11.837Z,4.60
2019-04-23T13:34:08.990Z,5.17
2019-04-23T13:35:53.661Z,4.37
2019-04-23T13:38:36.297Z,5.17
2019-04-23T13:44:00.100Z,5.03
2019-04-23T13:47:17.885Z,4.67
2019-04-23T13:50:30.943Z,5.03
2019-04-23T13:55:39.135Z,4.87
2019-04-23T14:01:20.058Z,4.40
2019-04-23T14:04:26.287Z,4.57
2019-04-23T14:06:49.531Z,4.63
2019-04-23T14:12:41.780Z,4.97
2019-04-23T14:21:11.176Z,4.50
2019-04-23T14:24:02.949Z,4.60
2019-04-23T14:29:28.485Z,6.40
2019-04-23T14:32:29.070Z,5.37
2019-04-23T14:35:14.016Z,5.03
2019-04-23T14:38:02.376Z,4.60
2019-04-23T14:43:23.859Z,4.73
2019-04-23T14:52:10.477Z,4.30
2019-04-23T14:55:35.904Z,4.77
2019-04-23T14:57:52.970Z,4.60
2019-04-23T15:00:33.503Z,5.80
2019-04-23T15:03:39.915Z,4.23
2019-04-23T15:06:47.814Z,4.40
2019-04-23T15:15:02.330Z,5.10
2019-04-23T15:17:45.174Z,4.60
2019-04-23T15:23:51.485Z,4.90
2019-04-23T15:27:47.423Z,4.70
2019-04-23T15:29:20.032Z,5.07
2019-04-23T15:32:18.675Z,5.03
2019-04-23T15:35:16.530Z,5.10
2019-04-23T15:38:20.473Z,4.83
2019-04-23T15:40:53.962Z,4.73
2019-04-23T15:43:52.263Z,4.83
2019-04-23T15:52:17.038Z,4.10
2019-04-23T15:58:05.482Z,4.67
2019-04-23T16:00:31.110Z,4.90
2019-04-23T16:02:50.478Z,4.60
2019-04-23T16:05:44.731Z,4.60
2019-04-23T16:09:04.758Z,5.00
2019-04-23T16:14:35.659Z,5.13
2019-04-23T16:17:21.203Z,4.70
2019-04-23T16:23:35.574Z,5.57
2019-04-23T16:26:28.868Z,5.00
2019-04-23T16:32:08.285Z,5.20
2019-04-23T16:35:15.636Z,4.90
2019-04-23T16:41:12.843Z,4.27
2019-04-23T16:44:07.957Z,5.00
2019-04-23T16:49:42.062Z,4.50
2019-04-23T16:52:34.872Z,4.63
2019-04-23T16:55:24.133Z,3.90
2019-04-23T16:58:23.280Z,4.20
2019-04-23T17:01:05.919Z,4.13
2019-04-23T17:06:48.964Z,4.53
2019-04-23T17:12:06.391Z,4.20
2019-04-23T17:14:48.170Z,4.50
2019-04-23T17:17:30.911Z,4.13
2019-04-23T17:20:28.691Z,4.60
2019-04-23T17:23:22.242Z,3.73
2019-04-23T17:25:59.225Z,3.77
2019-04-23T17:28:39.493Z,3.67
2019-04-23T17:31:35.277Z,4.07
2019-04-23T17:34:23.546Z,3.80
2019-04-23T17:37:12.381Z,3.50
2019-04-23T17:43:13.530Z,3.37
2019-04-23T17:46:27.318Z,3.43
2019-04-23T17:49:16.874Z,3.80
2019-04-23T17:52:22.070Z,3.67
2019-04-23T17:55:13.339Z,3.30
2019-04-23T17:58:03.908Z,3.40
2019-04-23T18:01:03.897Z,4.23
2019-04-23T18:03:52.540Z,3.80
2019-04-23T18:06:37.411Z,3.80
2019-04-23T18:09:26.222Z,3.40
2019-04-23T18:12:01.094Z,4.37
2019-04-23T18:14:40.354Z,4.13
2019-04-23T18:17:34.366Z,4.20
2019-04-23T18:24:23.321Z,4.67
2019-04-23T18:30:24.225Z,4.77
2019-04-23T18:36:29.699Z,4.63
2019-04-23T18:39:22.662Z,4.13
2019-04-23T18:42:25.745Z,4.10
2019-04-23T18:45:10.436Z,4.40
2019-04-23T18:47:52.014Z,4.47
2019-04-23T18:51:01.146Z,4.93
2019-04-23T18:53:57.354Z,4.87
2019-04-23T19:15:37.980Z,6.40
2019-04-23T19:18:45.167Z,10.70
2019-04-23T19:21:30.103Z,12.20
2019-04-23T19:24:04.732Z,10.83
2019-04-23T19:29:59.714Z,5.33
2019-04-23T19:33:29.857Z,9.00
2019-04-23T19:36:13.821Z,7.90
2019-04-23T19:38:56.065Z,5.40
2019-04-23T19:41:59.367Z,5.30
2019-04-23T19:44:24.480Z,4.77
2019-04-23T19:49:55.131Z,4.00
2019-04-23T19:55:36.339Z,5.50
2019-04-23T19:58:46.976Z,6.50
2019-04-23T20:12:46.540Z,5.40
2019-04-23T20:15:51.147Z,5.17
2019-04-23T20:18:40.209Z,5.10
2019-04-23T20:21:03.227Z,4.30
2019-04-23T20:26:41.324Z,4.43
2019-04-23T20:35:58.289Z,4.50
2019-04-23T20:41:32.949Z,4.00
2019-04-23T20:44:11.880Z,5.03
2019-04-23T20:52:33.930Z,4.63
2019-04-23T20:55:40.916Z,4.67
2019-04-23T20:58:59.640Z,4.83
2019-04-23T21:08:16.301Z,3.50
2019-04-23T21:10:51.116Z,3.63
2019-04-23T21:13:43.413Z,3.47
2019-04-23T21:16:05.042Z,3.80
2019-04-23T21:19:15.089Z,3.97
2019-04-23T21:22:12.215Z,3.40
2019-04-23T21:25:03.217Z,3.57
2019-04-23T21:27:57.225Z,3.20
2019-04-23T21:30:59.446Z,3.77
2019-04-23T21:34:06.122Z,3.93
2019-04-23T21:36:50.935Z,3.83
2019-04-23T21:40:33.814Z,3.47
2019-04-23T21:43:20.634Z,4.17
2019-04-23T21:46:28.118Z,3.47
2019-04-23T21:49:16.482Z,4.00
2019-04-23T21:54:49.169Z,4.20
2019-04-23T21:57:36.972Z,3.30
2019-04-23T22:00:19.008Z,3.60
2019-04-23T22:03:11.750Z,3.67
2019-04-23T22:08:44.112Z,3.70
2019-04-23T22:11:49.537Z,3.60
2019-04-23T22:14:21.714Z,3.57
2019-04-23T22:20:14.032Z,3.73
2019-04-23T22:23:00.896Z,3.97
2019-04-23T22:25:43.270Z,3.83
2019-04-23T22:28:17.974Z,3.30
2019-04-23T22:31:12.753Z,3.43
2019-04-23T22:34:06.266Z,3.50
2019-04-23T22:36:55.113Z,3.63
2019-04-23T22:39:36.339Z,3.43
2019-04-23T22:45:43.200Z,3.67
2019-04-23T22:48:13.897Z,3.70
2019-04-23T22:54:02.832Z,3.80
2019-04-23T22:56:43.964Z,3.37
2019-04-23T23:08:55.156Z,3.47
2019-04-23T23:11:22.614Z,4.40
2019-04-23T23:14:27.331Z,3.93
2019-04-23T23:20:11.731Z,3.97
2019-04-23T23:23:06.434Z,4.23
2019-04-23T23:33:48.998Z,3.97
2019-04-23T23:36:38.445Z,4.07
2019-04-23T23:42:09.756Z,4.80
2019-04-23T23:45:10.228Z,4.10
2019-04-23T23:51:39.779Z,4.07
2019-04-23T23:54:36.140Z,4.23
2019-04-23T23:57:21.522Z,4.03
